sensor_id;sensor_type;location;lat;lon;timestamp;temperature;humidity
59857;DHT22;45733;52.668;6.860;2023-09-12T00:00:56;20.20;99.90
59857;DHT22;45733;52.668;6.860;2023-09-12T00:03:40;20.20;99.90
59857;DHT22;45733;52.668;6.860;2023-09-12T00:06:12;19.80;99.90
59857;DHT22;45733;52.668;6.860;2023-09-12T00:09:02;20.20;99.90
59857;DHT22;45733;52.668;6.860;2023-09-12T00:11:40;19.70;99.90
59857;DHT22;45733;52.668;6.860;2023-09-12T00:14:14;19.80;99.90
59857;DHT22;45733;52.668;6.860;2023-09-12T00:16:52;19.90;99.90
59857;DHT22;45733;52.668;6.860;2023-09-12T00:19:26;19.90;99.90
59857;DHT22;45733;52.668;6.860;2023-09-12T00:21:55;20.20;99.90
59857;DHT22;45733;52.668;6.860;2023-09-12T00:24:33;20.00;99.90
59857;DHT22;45733;52.668;6.860;2023-09-12T00:27:04;19.80;99.90
59857;DHT22;45733;52.668;6.860;2023-09-12T00:29:58;19.90;99.90
59857;DHT22;45733;52.668;6.860;2023-09-12T00:32:27;19.90;99.90
59857;DHT22;45733;52.668;6.860;2023-09-12T00:34:55;19.90;99.90
59857;DHT22;45733;52.668;6.860;2023-09-12T00:37:34;20.00;99.90
59857;DHT22;45733;52.668;6.860;2023-09-12T00:40:00;19.80;99.90
59857;DHT22;45733;52.668;6.860;2023-09-12T00:42:28;19.60;99.90
59857;DHT22;45733;52.668;6.860;2023-09-12T00:44:57;19.80;99.90
59857;DHT22;45733;52.668;6.860;2023-09-12T00:47:27;19.60;99.90
59857;DHT22;45733;52.668;6.860;2023-09-12T00:49:55;19.40;99.90
59857;DHT22;45733;52.668;6.860;2023-09-12T00:52:26;19.50;99.90
59857;DHT22;45733;52.668;6.860;2023-09-12T00:54:53;19.30;99.90
59857;DHT22;45733;52.668;6.860;2023-09-12T00:57:20;19.80;99.90
59857;DHT22;45733;52.668;6.860;2023-09-12T00:59:48;19.40;99.90
59857;DHT22;45733;52.668;6.860;2023-09-12T01:02:14;19.70;99.90
59857;DHT22;45733;52.668;6.860;2023-09-12T01:04:41;19.70;99.90
59857;DHT22;45733;52.668;6.860;2023-09-12T01:07:07;19.60;99.90
59857;DHT22;45733;52.668;6.860;2023-09-12T01:09:33;19.90;99.90
59857;DHT22;45733;52.668;6.860;2023-09-12T01:12:00;19.80;99.90
59857;DHT22;45733;52.668;6.860;2023-09-12T01:14:28;19.80;99.90
59857;DHT22;45733;52.668;6.860;2023-09-12T01:16:54;19.90;99.90
59857;DHT22;45733;52.668;6.860;2023-09-12T01:19:20;19.40;99.90
59857;DHT22;45733;52.668;6.860;2023-09-12T01:24:52;19.80;99.90
59857;DHT22;45733;52.668;6.860;2023-09-12T01:27:28;19.60;99.90
59857;DHT22;45733;52.668;6.860;2023-09-12T01:29:57;19.30;99.90
59857;DHT22;45733;52.668;6.860;2023-09-12T01:32:23;19.40;99.90
59857;DHT22;45733;52.668;6.860;2023-09-12T01:34:49;19.70;99.90
59857;DHT22;45733;52.668;6.860;2023-09-12T01:37:14;19.30;99.90
59857;DHT22;45733;52.668;6.860;2023-09-12T01:39:41;19.20;99.90
59857;DHT22;45733;52.668;6.860;2023-09-12T01:42:08;19.60;99.90
59857;DHT22;45733;52.668;6.860;2023-09-12T01:44:37;19.20;99.90
59857;DHT22;45733;52.668;6.860;2023-09-12T01:47:04;19.30;99.90
59857;DHT22;45733;52.668;6.860;2023-09-12T01:49:31;19.60;99.90
59857;DHT22;45733;52.668;6.860;2023-09-12T01:51:58;19.50;99.90
59857;DHT22;45733;52.668;6.860;2023-09-12T01:54:26;19.60;99.90
59857;DHT22;45733;52.668;6.860;2023-09-12T01:56:54;19.30;99.90
59857;DHT22;45733;52.668;6.860;2023-09-12T01:59:23;19.30;99.90
59857;DHT22;45733;52.668;6.860;2023-09-12T02:01:59;19.10;99.90
59857;DHT22;45733;52.668;6.860;2023-09-12T02:04:25;19.40;99.90
59857;DHT22;45733;52.668;6.860;2023-09-12T02:06:51;19.40;99.90
59857;DHT22;45733;52.668;6.860;2023-09-12T02:09:16;19.70;99.90
59857;DHT22;45733;52.668;6.860;2023-09-12T02:11:45;19.60;99.90
59857;DHT22;45733;52.668;6.860;2023-09-12T02:14:10;19.20;99.90
59857;DHT22;45733;52.668;6.860;2023-09-12T02:16:37;19.20;99.90
59857;DHT22;45733;52.668;6.860;2023-09-12T02:19:08;19.10;99.90
59857;DHT22;45733;52.668;6.860;2023-09-12T02:21:34;19.60;99.90
59857;DHT22;45733;52.668;6.860;2023-09-12T02:24:02;19.30;99.90
59857;DHT22;45733;52.668;6.860;2023-09-12T02:26:28;19.20;99.90
59857;DHT22;45733;52.668;6.860;2023-09-12T02:28:53;19.60;99.90
59857;DHT22;45733;52.668;6.860;2023-09-12T02:31:19;19.30;99.90
59857;DHT22;45733;52.668;6.860;2023-09-12T02:33:45;19.60;99.90
59857;DHT22;45733;52.668;6.860;2023-09-12T02:36:13;19.70;99.90
59857;DHT22;45733;52.668;6.860;2023-09-12T02:38:39;19.70;99.90
59857;DHT22;45733;52.668;6.860;2023-09-12T02:41:05;19.60;99.90
59857;DHT22;45733;52.668;6.860;2023-09-12T02:43:31;19.10;99.90
59857;DHT22;45733;52.668;6.860;2023-09-12T02:46:00;19.10;99.90
59857;DHT22;45733;52.668;6.860;2023-09-12T02:48:32;19.50;99.90
59857;DHT22;45733;52.668;6.860;2023-09-12T02:50:58;19.50;99.90
59857;DHT22;45733;52.668;6.860;2023-09-12T02:53:23;19.40;99.90
59857;DHT22;45733;52.668;6.860;2023-09-12T02:55:56;19.20;99.90
59857;DHT22;45733;52.668;6.860;2023-09-12T02:58:22;19.20;99.90
59857;DHT22;45733;52.668;6.860;2023-09-12T03:00:48;19.50;99.90
59857;DHT22;45733;52.668;6.860;2023-09-12T03:03:15;19.50;99.90
59857;DHT22;45733;52.668;6.860;2023-09-12T03:05:42;19.30;99.90
59857;DHT22;45733;52.668;6.860;2023-09-12T03:08:08;19.30;99.90
59857;DHT22;45733;52.668;6.860;2023-09-12T03:10:34;18.90;99.90
59857;DHT22;45733;52.668;6.860;2023-09-12T03:12:59;18.90;99.90
59857;DHT22;45733;52.668;6.860;2023-09-12T03:15:25;18.70;99.90
59857;DHT22;45733;52.668;6.860;2023-09-12T03:17:51;18.70;99.90
59857;DHT22;45733;52.668;6.860;2023-09-12T03:20:16;18.40;99.90
59857;DHT22;45733;52.668;6.860;2023-09-12T03:22:42;18.50;99.90
59857;DHT22;45733;52.668;6.860;2023-09-12T03:25:08;18.60;99.90
59857;DHT22;45733;52.668;6.860;2023-09-12T03:27:34;18.70;99.90
59857;DHT22;45733;52.668;6.860;2023-09-12T03:29:59;18.60;99.90
59857;DHT22;45733;52.668;6.860;2023-09-12T03:32:25;18.40;99.90
59857;DHT22;45733;52.668;6.860;2023-09-12T03:34:50;18.70;99.90
59857;DHT22;45733;52.668;6.860;2023-09-12T03:37:16;18.80;99.90
59857;DHT22;45733;52.668;6.860;2023-09-12T03:39:42;19.00;99.90
59857;DHT22;45733;52.668;6.860;2023-09-12T03:42:07;18.90;99.90
59857;DHT22;45733;52.668;6.860;2023-09-12T03:44:33;18.70;99.90
59857;DHT22;45733;52.668;6.860;2023-09-12T03:46:59;18.90;99.90
59857;DHT22;45733;52.668;6.860;2023-09-12T03:49:25;18.80;99.90
59857;DHT22;45733;52.668;6.860;2023-09-12T03:51:51;18.90;99.90
59857;DHT22;45733;52.668;6.860;2023-09-12T03:54:16;19.20;99.90
59857;DHT22;45733;52.668;6.860;2023-09-12T03:56:42;18.80;99.90
59857;DHT22;45733;52.668;6.860;2023-09-12T03:59:08;18.80;99.90
59857;DHT22;45733;52.668;6.860;2023-09-12T04:01:33;19.20;99.90
59857;DHT22;45733;52.668;6.860;2023-09-12T04:04:00;18.90;99.90
59857;DHT22;45733;52.668;6.860;2023-09-12T04:06:25;19.10;99.90
59857;DHT22;45733;52.668;6.860;2023-09-12T04:08:51;19.40;99.90
59857;DHT22;45733;52.668;6.860;2023-09-12T04:11:17;19.40;99.90
59857;DHT22;45733;52.668;6.860;2023-09-12T04:13:42;19.00;99.90
59857;DHT22;45733;52.668;6.860;2023-09-12T04:16:09;19.20;99.90
59857;DHT22;45733;52.668;6.860;2023-09-12T04:18:35;19.40;99.90
59857;DHT22;45733;52.668;6.860;2023-09-12T04:21:00;19.30;99.90
59857;DHT22;45733;52.668;6.860;2023-09-12T04:23:26;19.40;99.90
59857;DHT22;45733;52.668;6.860;2023-09-12T04:25:52;19.40;99.90
59857;DHT22;45733;52.668;6.860;2023-09-12T04:28:17;19.30;99.90
59857;DHT22;45733;52.668;6.860;2023-09-12T04:30:43;19.60;99.90
59857;DHT22;45733;52.668;6.860;2023-09-12T04:33:09;19.60;99.90
59857;DHT22;45733;52.668;6.860;2023-09-12T04:35:35;19.60;99.90
59857;DHT22;45733;52.668;6.860;2023-09-12T04:38:01;19.40;99.90
59857;DHT22;45733;52.668;6.860;2023-09-12T04:40:26;19.10;99.90
59857;DHT22;45733;52.668;6.860;2023-09-12T04:42:53;19.50;99.90
59857;DHT22;45733;52.668;6.860;2023-09-12T04:45:19;19.30;99.90
59857;DHT22;45733;52.668;6.860;2023-09-12T04:47:44;19.70;99.90
59857;DHT22;45733;52.668;6.860;2023-09-12T04:50:10;19.60;99.90
59857;DHT22;45733;52.668;6.860;2023-09-12T04:52:39;19.10;99.90
59857;DHT22;45733;52.668;6.860;2023-09-12T04:55:05;19.10;99.90
59857;DHT22;45733;52.668;6.860;2023-09-12T04:57:31;19.30;99.90
59857;DHT22;45733;52.668;6.860;2023-09-12T04:59:58;19.50;99.90
59857;DHT22;45733;52.668;6.860;2023-09-12T05:02:24;19.30;99.90
59857;DHT22;45733;52.668;6.860;2023-09-12T05:04:51;19.60;99.90
59857;DHT22;45733;52.668;6.860;2023-09-12T05:07:19;19.10;99.90
59857;DHT22;45733;52.668;6.860;2023-09-12T05:09:45;19.40;99.90
59857;DHT22;45733;52.668;6.860;2023-09-12T05:12:11;19.20;99.90
59857;DHT22;45733;52.668;6.860;2023-09-12T05:14:36;19.10;99.90
59857;DHT22;45733;52.668;6.860;2023-09-12T05:17:02;19.60;99.90
59857;DHT22;45733;52.668;6.860;2023-09-12T05:19:29;19.50;99.90
59857;DHT22;45733;52.668;6.860;2023-09-12T05:21:55;19.40;99.90
59857;DHT22;45733;52.668;6.860;2023-09-12T05:24:21;19.10;99.90
59857;DHT22;45733;52.668;6.860;2023-09-12T05:26:49;19.10;99.90
59857;DHT22;45733;52.668;6.860;2023-09-12T05:29:15;19.30;99.90
59857;DHT22;45733;52.668;6.860;2023-09-12T05:31:41;19.10;99.90
59857;DHT22;45733;52.668;6.860;2023-09-12T05:34:07;19.40;99.90
59857;DHT22;45733;52.668;6.860;2023-09-12T05:36:35;18.90;99.90
59857;DHT22;45733;52.668;6.860;2023-09-12T05:39:01;19.10;99.90
59857;DHT22;45733;52.668;6.860;2023-09-12T05:41:33;19.30;99.90
59857;DHT22;45733;52.668;6.860;2023-09-12T05:44:04;19.30;99.90
59857;DHT22;45733;52.668;6.860;2023-09-12T05:46:36;19.20;99.90
59857;DHT22;45733;52.668;6.860;2023-09-12T05:49:05;19.30;99.90
59857;DHT22;45733;52.668;6.860;2023-09-12T05:51:37;19.20;99.90
59857;DHT22;45733;52.668;6.860;2023-09-12T05:54:05;19.60;99.90
59857;DHT22;45733;52.668;6.860;2023-09-12T05:56:33;19.20;99.90
59857;DHT22;45733;52.668;6.860;2023-09-12T05:58:59;19.50;99.90
59857;DHT22;45733;52.668;6.860;2023-09-12T06:01:25;19.60;99.90
59857;DHT22;45733;52.668;6.860;2023-09-12T06:03:50;19.50;99.90
59857;DHT22;45733;52.668;6.860;2023-09-12T06:06:16;19.80;99.90
59857;DHT22;45733;52.668;6.860;2023-09-12T06:08:45;19.90;99.90
59857;DHT22;45733;52.668;6.860;2023-09-12T06:11:13;19.90;99.90
59857;DHT22;45733;52.668;6.860;2023-09-12T06:13:41;19.60;99.90
59857;DHT22;45733;52.668;6.860;2023-09-12T06:16:07;19.40;99.90
59857;DHT22;45733;52.668;6.860;2023-09-12T06:18:35;19.90;99.90
59857;DHT22;45733;52.668;6.860;2023-09-12T06:21:46;19.60;99.90
59857;DHT22;45733;52.668;6.860;2023-09-12T06:26:38;19.80;99.90
59857;DHT22;45733;52.668;6.860;2023-09-12T06:29:04;19.60;99.90
59857;DHT22;45733;52.668;6.860;2023-09-12T06:31:30;19.70;99.90
59857;DHT22;45733;52.668;6.860;2023-09-12T06:33:59;19.60;99.90
59857;DHT22;45733;52.668;6.860;2023-09-12T06:36:25;19.90;99.90
59857;DHT22;45733;52.668;6.860;2023-09-12T06:38:51;19.50;99.90
59857;DHT22;45733;52.668;6.860;2023-09-12T06:41:23;19.90;99.90
59857;DHT22;45733;52.668;6.860;2023-09-12T06:43:49;19.80;99.90
59857;DHT22;45733;52.668;6.860;2023-09-12T06:46:20;19.60;99.90
59857;DHT22;45733;52.668;6.860;2023-09-12T06:48:54;19.70;99.90
59857;DHT22;45733;52.668;6.860;2023-09-12T06:51:26;19.90;99.90
59857;DHT22;45733;52.668;6.860;2023-09-12T06:53:52;20.00;99.90
59857;DHT22;45733;52.668;6.860;2023-09-12T06:56:21;20.10;99.90
59857;DHT22;45733;52.668;6.860;2023-09-12T06:58:50;19.90;99.90
59857;DHT22;45733;52.668;6.860;2023-09-12T07:01:15;20.00;99.90
59857;DHT22;45733;52.668;6.860;2023-09-12T07:03:41;19.80;99.90
59857;DHT22;45733;52.668;6.860;2023-09-12T07:06:07;19.70;99.90
59857;DHT22;45733;52.668;6.860;2023-09-12T07:08:36;19.70;99.90
59857;DHT22;45733;52.668;6.860;2023-09-12T07:11:05;19.80;99.90
59857;DHT22;45733;52.668;6.860;2023-09-12T07:13:34;19.80;99.90
59857;DHT22;45733;52.668;6.860;2023-09-12T07:16:03;19.50;99.90
59857;DHT22;45733;52.668;6.860;2023-09-12T07:18:32;19.70;99.90
59857;DHT22;45733;52.668;6.860;2023-09-12T07:21:03;19.60;99.90
59857;DHT22;45733;52.668;6.860;2023-09-12T07:23:29;19.70;99.90
59857;DHT22;45733;52.668;6.860;2023-09-12T07:25:56;19.80;99.90
59857;DHT22;45733;52.668;6.860;2023-09-12T07:28:34;19.80;99.90
59857;DHT22;45733;52.668;6.860;2023-09-12T07:31:06;19.80;99.90
59857;DHT22;45733;52.668;6.860;2023-09-12T07:33:38;19.80;99.90
59857;DHT22;45733;52.668;6.860;2023-09-12T07:36:16;20.20;99.90
59857;DHT22;45733;52.668;6.860;2023-09-12T07:38:41;20.10;99.90
59857;DHT22;45733;52.668;6.860;2023-09-12T07:41:11;20.30;99.90
59857;DHT22;45733;52.668;6.860;2023-09-12T07:43:42;20.10;99.90
59857;DHT22;45733;52.668;6.860;2023-09-12T07:46:08;20.40;99.90
59857;DHT22;45733;52.668;6.860;2023-09-12T07:48:39;20.30;99.90
59857;DHT22;45733;52.668;6.860;2023-09-12T07:51:15;20.50;99.90
59857;DHT22;45733;52.668;6.860;2023-09-12T07:53:48;20.50;99.90
59857;DHT22;45733;52.668;6.860;2023-09-12T07:56:20;20.40;99.90
59857;DHT22;45733;52.668;6.860;2023-09-12T07:59:10;20.30;99.90
59857;DHT22;45733;52.668;6.860;2023-09-12T08:01:43;20.40;99.90
59857;DHT22;45733;52.668;6.860;2023-09-12T08:07:01;20.40;99.90
59857;DHT22;45733;52.668;6.860;2023-09-12T08:09:51;20.60;99.90
59857;DHT22;45733;52.668;6.860;2023-09-12T08:12:25;20.70;99.90
59857;DHT22;45733;52.668;6.860;2023-09-12T08:15:03;20.80;99.90
59857;DHT22;45733;52.668;6.860;2023-09-12T08:17:35;20.70;99.90
59857;DHT22;45733;52.668;6.860;2023-09-12T08:20:04;20.70;99.90
59857;DHT22;45733;52.668;6.860;2023-09-12T08:22:38;20.70;99.90
59857;DHT22;45733;52.668;6.860;2023-09-12T08:27:53;20.90;99.90
59857;DHT22;45733;52.668;6.860;2023-09-12T08:30:22;20.80;99.90
59857;DHT22;45733;52.668;6.860;2023-09-12T08:32:57;20.80;99.90
59857;DHT22;45733;52.668;6.860;2023-09-12T08:35:22;21.00;99.90
59857;DHT22;45733;52.668;6.860;2023-09-12T08:37:54;20.80;99.90
59857;DHT22;45733;52.668;6.860;2023-09-12T08:40:23;20.90;99.90
59857;DHT22;45733;52.668;6.860;2023-09-12T08:43:02;20.90;99.90
59857;DHT22;45733;52.668;6.860;2023-09-12T08:45:33;20.90;99.90
59857;DHT22;45733;52.668;6.860;2023-09-12T08:48:10;21.00;99.90
59857;DHT22;45733;52.668;6.860;2023-09-12T08:50:39;20.90;99.90
59857;DHT22;45733;52.668;6.860;2023-09-12T08:53:18;20.90;99.90
59857;DHT22;45733;52.668;6.860;2023-09-12T08:55:52;21.00;99.90
59857;DHT22;45733;52.668;6.860;2023-09-12T08:58:24;21.00;99.90
59857;DHT22;45733;52.668;6.860;2023-09-12T09:01:10;21.00;99.90
59857;DHT22;45733;52.668;6.860;2023-09-12T09:03:42;21.10;99.90
59857;DHT22;45733;52.668;6.860;2023-09-12T09:06:13;21.10;99.90
59857;DHT22;45733;52.668;6.860;2023-09-12T09:08:39;21.20;99.90
59857;DHT22;45733;52.668;6.860;2023-09-12T09:11:15;21.20;99.90
59857;DHT22;45733;52.668;6.860;2023-09-12T09:13:43;21.40;99.90
59857;DHT22;45733;52.668;6.860;2023-09-12T09:16:14;21.50;99.90
59857;DHT22;45733;52.668;6.860;2023-09-12T09:19:03;21.50;99.90
59857;DHT22;45733;52.668;6.860;2023-09-12T09:21:45;21.60;99.90
59857;DHT22;45733;52.668;6.860;2023-09-12T09:24:17;21.70;99.90
59857;DHT22;45733;52.668;6.860;2023-09-12T09:27:02;21.70;99.90
59857;DHT22;45733;52.668;6.860;2023-09-12T09:29:31;21.70;99.90
59857;DHT22;45733;52.668;6.860;2023-09-12T09:32:19;21.70;99.90
59857;DHT22;45733;52.668;6.860;2023-09-12T09:34:53;21.70;99.90
59857;DHT22;45733;52.668;6.860;2023-09-12T09:37:21;21.80;99.90
59857;DHT22;45733;52.668;6.860;2023-09-12T09:39:51;21.80;99.90
59857;DHT22;45733;52.668;6.860;2023-09-12T09:42:17;21.80;99.90
59857;DHT22;45733;52.668;6.860;2023-09-12T09:44:46;21.80;99.90
59857;DHT22;45733;52.668;6.860;2023-09-12T09:47:16;21.90;99.90
59857;DHT22;45733;52.668;6.860;2023-09-12T09:49:46;21.90;99.90
59857;DHT22;45733;52.668;6.860;2023-09-12T09:52:15;22.10;99.90
59857;DHT22;45733;52.668;6.860;2023-09-12T09:54:47;22.30;99.90
59857;DHT22;45733;52.668;6.860;2023-09-12T09:57:13;22.40;99.90
59857;DHT22;45733;52.668;6.860;2023-09-12T09:59:38;22.50;99.90
59857;DHT22;45733;52.668;6.860;2023-09-12T10:02:17;22.60;99.90
59857;DHT22;45733;52.668;6.860;2023-09-12T10:04:55;22.60;99.90
59857;DHT22;45733;52.668;6.860;2023-09-12T10:07:37;22.90;99.90
59857;DHT22;45733;52.668;6.860;2023-09-12T10:10:23;22.90;99.90
59857;DHT22;45733;52.668;6.860;2023-09-12T10:12:52;23.10;99.90
59857;DHT22;45733;52.668;6.860;2023-09-12T10:15:23;23.10;99.90
59857;DHT22;45733;52.668;6.860;2023-09-12T10:17:57;23.00;99.90
59857;DHT22;45733;52.668;6.860;2023-09-12T10:20:32;23.00;99.90
59857;DHT22;45733;52.668;6.860;2023-09-12T10:23:41;23.00;99.90
59857;DHT22;45733;52.668;6.860;2023-09-12T10:26:11;22.80;99.90
59857;DHT22;45733;52.668;6.860;2023-09-12T10:28:41;23.20;99.90
59857;DHT22;45733;52.668;6.860;2023-09-12T10:31:16;23.50;99.90
59857;DHT22;45733;52.668;6.860;2023-09-12T10:33:43;23.30;99.90
59857;DHT22;45733;52.668;6.860;2023-09-12T10:36:17;23.50;99.90
59857;DHT22;45733;52.668;6.860;2023-09-12T10:38:53;23.90;99.90
59857;DHT22;45733;52.668;6.860;2023-09-12T10:41:27;24.50;99.90
59857;DHT22;45733;52.668;6.860;2023-09-12T10:44:01;24.90;99.90
59857;DHT22;45733;52.668;6.860;2023-09-12T10:46:31;25.00;99.90
59857;DHT22;45733;52.668;6.860;2023-09-12T10:49:00;25.00;99.90
59857;DHT22;45733;52.668;6.860;2023-09-12T10:51:34;24.50;99.90
59857;DHT22;45733;52.668;6.860;2023-09-12T10:54:00;24.90;99.90
59857;DHT22;45733;52.668;6.860;2023-09-12T10:56:26;24.80;99.90
59857;DHT22;45733;52.668;6.860;2023-09-12T11:01:36;25.10;99.90
59857;DHT22;45733;52.668;6.860;2023-09-12T11:12:41;25.90;99.90
59857;DHT22;45733;52.668;6.860;2023-09-12T11:15:10;26.00;99.90
59857;DHT22;45733;52.668;6.860;2023-09-12T11:17:42;26.10;99.90
59857;DHT22;45733;52.668;6.860;2023-09-12T11:23:13;25.80;99.90
59857;DHT22;45733;52.668;6.860;2023-09-12T11:25:45;25.80;99.90
59857;DHT22;45733;52.668;6.860;2023-09-12T11:28:13;26.40;99.90
59857;DHT22;45733;52.668;6.860;2023-09-12T11:30:55;26.50;99.90
59857;DHT22;45733;52.668;6.860;2023-09-12T11:33:24;25.80;99.90
59857;DHT22;45733;52.668;6.860;2023-09-12T11:35:53;25.80;99.90
59857;DHT22;45733;52.668;6.860;2023-09-12T11:38:38;25.50;99.90
59857;DHT22;45733;52.668;6.860;2023-09-12T11:41:04;25.80;99.90
59857;DHT22;45733;52.668;6.860;2023-09-12T11:46:25;25.60;99.90
59857;DHT22;45733;52.668;6.860;2023-09-12T11:49:00;25.50;99.90
59857;DHT22;45733;52.668;6.860;2023-09-12T11:51:26;25.70;99.90
59857;DHT22;45733;52.668;6.860;2023-09-12T11:53:58;25.60;99.90
59857;DHT22;45733;52.668;6.860;2023-09-12T11:56:33;26.20;99.90
59857;DHT22;45733;52.668;6.860;2023-09-12T11:59:02;26.40;99.90
59857;DHT22;45733;52.668;6.860;2023-09-12T12:01:29;26.40;99.90
59857;DHT22;45733;52.668;6.860;2023-09-12T12:03:55;26.50;99.90
59857;DHT22;45733;52.668;6.860;2023-09-12T12:06:28;26.60;99.90
59857;DHT22;45733;52.668;6.860;2023-09-12T12:08:57;26.80;99.90
59857;DHT22;45733;52.668;6.860;2023-09-12T12:11:27;26.20;99.90
59857;DHT22;45733;52.668;6.860;2023-09-12T12:13:56;26.80;99.90
59857;DHT22;45733;52.668;6.860;2023-09-12T12:16:25;26.90;99.90
59857;DHT22;45733;52.668;6.860;2023-09-12T12:18:51;26.70;99.90
59857;DHT22;45733;52.668;6.860;2023-09-12T12:21:21;25.90;99.90
59857;DHT22;45733;52.668;6.860;2023-09-12T12:24:19;25.60;99.90
59857;DHT22;45733;52.668;6.860;2023-09-12T12:26:45;25.80;99.90
59857;DHT22;45733;52.668;6.860;2023-09-12T12:29:33;25.50;99.90
59857;DHT22;45733;52.668;6.860;2023-09-12T12:32:08;26.40;99.90
59857;DHT22;45733;52.668;6.860;2023-09-12T12:34:37;26.90;99.90
59857;DHT22;45733;52.668;6.860;2023-09-12T12:37:09;27.20;99.90
59857;DHT22;45733;52.668;6.860;2023-09-12T12:39:43;27.40;99.90
59857;DHT22;45733;52.668;6.860;2023-09-12T12:42:09;27.50;99.90
59857;DHT22;45733;52.668;6.860;2023-09-12T12:45:01;27.40;99.90
59857;DHT22;45733;52.668;6.860;2023-09-12T12:47:36;26.10;99.90
59857;DHT22;45733;52.668;6.860;2023-09-12T12:50:17;26.10;99.90
59857;DHT22;45733;52.668;6.860;2023-09-12T12:55:41;26.50;99.90
59857;DHT22;45733;52.668;6.860;2023-09-12T12:58:09;26.60;99.90
59857;DHT22;45733;52.668;6.860;2023-09-12T13:00:44;26.70;99.90
59857;DHT22;45733;52.668;6.860;2023-09-12T13:03:19;26.50;99.90
59857;DHT22;45733;52.668;6.860;2023-09-12T13:05:45;25.90;99.90
59857;DHT22;45733;52.668;6.860;2023-09-12T13:08:20;26.10;99.90
59857;DHT22;45733;52.668;6.860;2023-09-12T13:10:45;26.50;99.90
59857;DHT22;45733;52.668;6.860;2023-09-12T13:13:11;26.90;99.90
59857;DHT22;45733;52.668;6.860;2023-09-12T13:15:37;27.20;99.90
59857;DHT22;45733;52.668;6.860;2023-09-12T13:18:03;27.30;99.90
59857;DHT22;45733;52.668;6.860;2023-09-12T13:20:29;27.20;99.90
59857;DHT22;45733;52.668;6.860;2023-09-12T13:22:55;27.20;99.90
59857;DHT22;45733;52.668;6.860;2023-09-12T13:25:21;27.30;99.90
59857;DHT22;45733;52.668;6.860;2023-09-12T13:27:49;27.80;99.90
59857;DHT22;45733;52.668;6.860;2023-09-12T13:30:24;27.80;99.90
59857;DHT22;45733;52.668;6.860;2023-09-12T13:32:49;27.80;99.90
59857;DHT22;45733;52.668;6.860;2023-09-12T13:35:15;27.80;99.90
59857;DHT22;45733;52.668;6.860;2023-09-12T13:37:47;27.50;99.90
59857;DHT22;45733;52.668;6.860;2023-09-12T13:40:16;27.60;99.90
59857;DHT22;45733;52.668;6.860;2023-09-12T13:42:52;27.80;99.90
59857;DHT22;45733;52.668;6.860;2023-09-12T13:45:26;28.10;99.90
59857;DHT22;45733;52.668;6.860;2023-09-12T13:48:06;28.00;99.90
59857;DHT22;45733;52.668;6.860;2023-09-12T13:50:37;28.30;99.90
59857;DHT22;45733;52.668;6.860;2023-09-12T13:53:03;28.20;99.90
59857;DHT22;45733;52.668;6.860;2023-09-12T13:55:32;28.20;99.90
59857;DHT22;45733;52.668;6.860;2023-09-12T13:58:02;28.20;99.90
59857;DHT22;45733;52.668;6.860;2023-09-12T14:00:36;28.10;99.90
59857;DHT22;45733;52.668;6.860;2023-09-12T14:03:01;28.20;99.90
59857;DHT22;45733;52.668;6.860;2023-09-12T14:05:27;28.10;99.90
59857;DHT22;45733;52.668;6.860;2023-09-12T14:07:53;28.30;99.90
59857;DHT22;45733;52.668;6.860;2023-09-12T14:10:22;27.90;99.90
59857;DHT22;45733;52.668;6.860;2023-09-12T14:12:47;27.80;99.90
59857;DHT22;45733;52.668;6.860;2023-09-12T14:15:25;28.00;99.90
59857;DHT22;45733;52.668;6.860;2023-09-12T14:18:00;27.70;99.90
59857;DHT22;45733;52.668;6.860;2023-09-12T14:20:26;27.30;99.90
59857;DHT22;45733;52.668;6.860;2023-09-12T14:22:58;27.10;99.90
59857;DHT22;45733;52.668;6.860;2023-09-12T14:25:24;26.80;99.90
59857;DHT22;45733;52.668;6.860;2023-09-12T14:28:02;26.60;99.90
59857;DHT22;45733;52.668;6.860;2023-09-12T14:30:32;26.50;99.90
59857;DHT22;45733;52.668;6.860;2023-09-12T14:33:06;26.60;99.90
59857;DHT22;45733;52.668;6.860;2023-09-12T14:35:41;26.70;99.90
59857;DHT22;45733;52.668;6.860;2023-09-12T14:38:09;26.90;99.90
59857;DHT22;45733;52.668;6.860;2023-09-12T14:40:35;27.20;99.90
59857;DHT22;45733;52.668;6.860;2023-09-12T14:43:10;27.30;99.90
59857;DHT22;45733;52.668;6.860;2023-09-12T14:45:38;27.50;99.90
59857;DHT22;45733;52.668;6.860;2023-09-12T14:48:05;27.80;99.90
59857;DHT22;45733;52.668;6.860;2023-09-12T14:50:34;27.50;99.90
59857;DHT22;45733;52.668;6.860;2023-09-12T14:52:59;27.20;99.90
59857;DHT22;45733;52.668;6.860;2023-09-12T14:55:25;26.80;99.90
59857;DHT22;45733;52.668;6.860;2023-09-12T14:57:54;26.40;99.90
59857;DHT22;45733;52.668;6.860;2023-09-12T15:00:22;26.10;99.90
59857;DHT22;45733;52.668;6.860;2023-09-12T15:02:53;25.90;99.90
59857;DHT22;45733;52.668;6.860;2023-09-12T15:05:22;25.70;99.90
59857;DHT22;45733;52.668;6.860;2023-09-12T15:07:53;25.60;99.90
59857;DHT22;45733;52.668;6.860;2023-09-12T15:10:19;25.50;99.90
59857;DHT22;45733;52.668;6.860;2023-09-12T15:13:03;25.30;99.90
59857;DHT22;45733;52.668;6.860;2023-09-12T15:16:03;25.20;99.90
59857;DHT22;45733;52.668;6.860;2023-09-12T15:18:38;25.20;99.90
59857;DHT22;45733;52.668;6.860;2023-09-12T15:21:11;25.10;99.90
59857;DHT22;45733;52.668;6.860;2023-09-12T15:23:40;25.20;99.90
59857;DHT22;45733;52.668;6.860;2023-09-12T15:26:06;25.00;99.90
59857;DHT22;45733;52.668;6.860;2023-09-12T15:28:32;25.00;99.90
59857;DHT22;45733;52.668;6.860;2023-09-12T15:30:57;24.90;99.90
59857;DHT22;45733;52.668;6.860;2023-09-12T15:33:28;24.70;99.90
59857;DHT22;45733;52.668;6.860;2023-09-12T15:36:04;24.70;99.90
59857;DHT22;45733;52.668;6.860;2023-09-12T15:38:30;24.70;99.90
59857;DHT22;45733;52.668;6.860;2023-09-12T15:40:59;24.50;99.90
59857;DHT22;45733;52.668;6.860;2023-09-12T15:43:41;24.50;99.90
59857;DHT22;45733;52.668;6.860;2023-09-12T15:46:13;24.40;99.90
59857;DHT22;45733;52.668;6.860;2023-09-12T15:48:51;24.40;99.90
59857;DHT22;45733;52.668;6.860;2023-09-12T15:51:22;24.50;99.90
59857;DHT22;45733;52.668;6.860;2023-09-12T15:53:54;24.80;99.90
59857;DHT22;45733;52.668;6.860;2023-09-12T15:56:20;25.10;99.90
59857;DHT22;45733;52.668;6.860;2023-09-12T16:01:24;25.30;99.90
59857;DHT22;45733;52.668;6.860;2023-09-12T16:03:50;25.60;99.90
59857;DHT22;45733;52.668;6.860;2023-09-12T16:06:16;25.50;99.90
59857;DHT22;45733;52.668;6.860;2023-09-12T16:08:42;25.50;99.90
59857;DHT22;45733;52.668;6.860;2023-09-12T16:11:16;25.20;99.90
59857;DHT22;45733;52.668;6.860;2023-09-12T16:13:42;25.20;99.90
59857;DHT22;45733;52.668;6.860;2023-09-12T16:16:08;25.20;99.90
59857;DHT22;45733;52.668;6.860;2023-09-12T16:18:37;25.10;99.90
59857;DHT22;45733;52.668;6.860;2023-09-12T16:21:09;24.80;99.90